sensor_id;sensor_type;location;lat;lon;timestamp;P1;durP1;ratioP1;P2;durP2;ratioP2
9465;SDS011;4771;48.726;9.006;2022-08-19T00:01:22;13.43;;;11.63;;
9465;SDS011;4771;48.726;9.006;2022-08-19T00:03:50;13.68;;;11.65;;
9465;SDS011;4771;48.726;9.006;2022-08-19T00:06:17;13.20;;;11.38;;
9465;SDS011;4771;48.726;9.006;2022-08-19T00:08:43;13.95;;;12.27;;
9465;SDS011;4771;48.726;9.006;2022-08-19T00:11:10;14.48;;;13.07;;
9465;SDS011;4771;48.726;9.006;2022-08-19T00:13:37;14.80;;;11.98;;
9465;SDS011;4771;48.726;9.006;2022-08-19T00:16:06;15.00;;;12.50;;
9465;SDS011;4771;48.726;9.006;2022-08-19T00:18:33;13.00;;;11.70;;
9465;SDS011;4771;48.726;9.006;2022-08-19T00:21:01;13.40;;;12.00;;
9465;SDS011;4771;48.726;9.006;2022-08-19T00:23:32;14.23;;;12.00;;
9465;SDS011;4771;48.726;9.006;2022-08-19T00:26:01;14.75;;;12.25;;
9465;SDS011;4771;48.726;9.006;2022-08-19T00:28:28;14.55;;;12.55;;
9465;SDS011;4771;48.726;9.006;2022-08-19T00:30:56;13.95;;;12.65;;
9465;SDS011;4771;48.726;9.006;2022-08-19T00:33:24;14.90;;;13.38;;
9465;SDS011;4771;48.726;9.006;2022-08-19T00:35:51;13.40;;;12.10;;
9465;SDS011;4771;48.726;9.006;2022-08-19T00:38:18;13.93;;;12.43;;
9465;SDS011;4771;48.726;9.006;2022-08-19T00:40:47;16.30;;;12.55;;
9465;SDS011;4771;48.726;9.006;2022-08-19T00:43:17;15.32;;;13.73;;
9465;SDS011;4771;48.726;9.006;2022-08-19T00:45:46;14.85;;;13.35;;
9465;SDS011;4771;48.726;9.006;2022-08-19T00:48:15;15.50;;;13.45;;
9465;SDS011;4771;48.726;9.006;2022-08-19T00:50:44;15.70;;;12.95;;
9465;SDS011;4771;48.726;9.006;2022-08-19T00:53:12;14.60;;;13.10;;
9465;SDS011;4771;48.726;9.006;2022-08-19T00:55:42;16.88;;;13.70;;
9465;SDS011;4771;48.726;9.006;2022-08-19T00:58:13;15.95;;;13.88;;
9465;SDS011;4771;48.726;9.006;2022-08-19T01:00:42;14.98;;;13.40;;
9465;SDS011;4771;48.726;9.006;2022-08-19T01:03:11;14.73;;;13.20;;
9465;SDS011;4771;48.726;9.006;2022-08-19T01:05:41;15.65;;;13.40;;
9465;SDS011;4771;48.726;9.006;2022-08-19T01:08:11;14.15;;;12.65;;
9465;SDS011;4771;48.726;9.006;2022-08-19T01:10:41;15.45;;;13.60;;
9465;SDS011;4771;48.726;9.006;2022-08-19T01:13:09;15.48;;;13.68;;
9465;SDS011;4771;48.726;9.006;2022-08-19T01:15:39;14.82;;;13.20;;
9465;SDS011;4771;48.726;9.006;2022-08-19T01:18:09;14.68;;;13.02;;
9465;SDS011;4771;48.726;9.006;2022-08-19T01:20:39;15.40;;;12.48;;
9465;SDS011;4771;48.726;9.006;2022-08-19T01:23:08;17.40;;;14.32;;
9465;SDS011;4771;48.726;9.006;2022-08-19T01:25:39;15.63;;;13.95;;
9465;SDS011;4771;48.726;9.006;2022-08-19T01:28:14;15.73;;;14.05;;
9465;SDS011;4771;48.726;9.006;2022-08-19T01:30:42;18.20;;;14.23;;
9465;SDS011;4771;48.726;9.006;2022-08-19T01:33:09;20.35;;;15.48;;
9465;SDS011;4771;48.726;9.006;2022-08-19T01:35:36;16.73;;;14.85;;
9465;SDS011;4771;48.726;9.006;2022-08-19T01:38:04;17.48;;;15.10;;
9465;SDS011;4771;48.726;9.006;2022-08-19T01:40:35;18.08;;;14.95;;
9465;SDS011;4771;48.726;9.006;2022-08-19T01:43:05;17.40;;;14.85;;
9465;SDS011;4771;48.726;9.006;2022-08-19T01:45:33;18.40;;;15.57;;
9465;SDS011;4771;48.726;9.006;2022-08-19T01:48:01;19.27;;;15.82;;
9465;SDS011;4771;48.726;9.006;2022-08-19T01:50:29;17.73;;;15.82;;
9465;SDS011;4771;48.726;9.006;2022-08-19T01:52:56;18.13;;;16.23;;
9465;SDS011;4771;48.726;9.006;2022-08-19T01:55:24;18.55;;;16.50;;
9465;SDS011;4771;48.726;9.006;2022-08-19T01:57:53;19.05;;;16.92;;
9465;SDS011;4771;48.726;9.006;2022-08-19T02:00:23;17.58;;;15.77;;
9465;SDS011;4771;48.726;9.006;2022-08-19T02:02:51;18.98;;;16.95;;
9465;SDS011;4771;48.726;9.006;2022-08-19T02:05:19;17.80;;;15.90;;
9465;SDS011;4771;48.726;9.006;2022-08-19T02:07:46;19.33;;;16.48;;
9465;SDS011;4771;48.726;9.006;2022-08-19T02:10:15;18.58;;;15.35;;
9465;SDS011;4771;48.726;9.006;2022-08-19T02:12:43;18.90;;;16.38;;
9465;SDS011;4771;48.726;9.006;2022-08-19T02:15:12;19.95;;;17.85;;
9465;SDS011;4771;48.726;9.006;2022-08-19T02:17:39;18.45;;;15.40;;
9465;SDS011;4771;48.726;9.006;2022-08-19T02:20:07;18.17;;;16.25;;
9465;SDS011;4771;48.726;9.006;2022-08-19T02:22:35;19.65;;;17.10;;
9465;SDS011;4771;48.726;9.006;2022-08-19T02:25:02;17.80;;;15.88;;
9465;SDS011;4771;48.726;9.006;2022-08-19T02:27:30;22.23;;;16.98;;
9465;SDS011;4771;48.726;9.006;2022-08-19T02:29:58;17.65;;;15.77;;
9465;SDS011;4771;48.726;9.006;2022-08-19T02:32:27;19.88;;;17.23;;
9465;SDS011;4771;48.726;9.006;2022-08-19T02:34:55;20.30;;;17.15;;
9465;SDS011;4771;48.726;9.006;2022-08-19T02:37:22;19.90;;;17.55;;
9465;SDS011;4771;48.726;9.006;2022-08-19T02:40:15;20.45;;;17.17;;
9465;SDS011;4771;48.726;9.006;2022-08-19T02:42:42;18.65;;;16.60;;
9465;SDS011;4771;48.726;9.006;2022-08-19T02:45:10;19.30;;;17.25;;
9465;SDS011;4771;48.726;9.006;2022-08-19T02:47:39;19.48;;;17.40;;
9465;SDS011;4771;48.726;9.006;2022-08-19T02:50:06;18.63;;;16.67;;
9465;SDS011;4771;48.726;9.006;2022-08-19T02:52:34;21.35;;;17.55;;
9465;SDS011;4771;48.726;9.006;2022-08-19T02:55:01;19.58;;;16.80;;
9465;SDS011;4771;48.726;9.006;2022-08-19T02:57:29;18.15;;;16.23;;
9465;SDS011;4771;48.726;9.006;2022-08-19T02:59:57;19.77;;;17.42;;
9465;SDS011;4771;48.726;9.006;2022-08-19T03:02:24;21.95;;;18.25;;
9465;SDS011;4771;48.726;9.006;2022-08-19T03:04:53;19.25;;;17.23;;
9465;SDS011;4771;48.726;9.006;2022-08-19T03:07:20;19.05;;;17.05;;
9465;SDS011;4771;48.726;9.006;2022-08-19T03:09:47;20.35;;;17.73;;
9465;SDS011;4771;48.726;9.006;2022-08-19T03:12:14;20.25;;;18.13;;
9465;SDS011;4771;48.726;9.006;2022-08-19T03:14:41;23.05;;;19.13;;
9465;SDS011;4771;48.726;9.006;2022-08-19T03:17:08;19.25;;;17.25;;
9465;SDS011;4771;48.726;9.006;2022-08-19T03:19:35;22.65;;;17.33;;
9465;SDS011;4771;48.726;9.006;2022-08-19T03:22:04;21.45;;;19.25;;
9465;SDS011;4771;48.726;9.006;2022-08-19T03:24:32;20.77;;;17.85;;
9465;SDS011;4771;48.726;9.006;2022-08-19T03:26:59;19.88;;;17.83;;
9465;SDS011;4771;48.726;9.006;2022-08-19T03:29:26;20.05;;;17.95;;
9465;SDS011;4771;48.726;9.006;2022-08-19T03:31:55;19.77;;;17.67;;
9465;SDS011;4771;48.726;9.006;2022-08-19T03:34:23;22.00;;;19.42;;
9465;SDS011;4771;48.726;9.006;2022-08-19T03:36:52;20.45;;;18.15;;
9465;SDS011;4771;48.726;9.006;2022-08-19T03:39:22;20.33;;;18.08;;
9465;SDS011;4771;48.726;9.006;2022-08-19T03:41:50;21.55;;;18.73;;
9465;SDS011;4771;48.726;9.006;2022-08-19T03:44:21;21.80;;;18.95;;
9465;SDS011;4771;48.726;9.006;2022-08-19T03:46:50;20.63;;;18.55;;
9465;SDS011;4771;48.726;9.006;2022-08-19T03:49:19;22.35;;;19.98;;
9465;SDS011;4771;48.726;9.006;2022-08-19T03:51:47;23.38;;;20.23;;
9465;SDS011;4771;48.726;9.006;2022-08-19T03:54:16;22.85;;;18.95;;
9465;SDS011;4771;48.726;9.006;2022-08-19T03:56:46;21.60;;;18.70;;
9465;SDS011;4771;48.726;9.006;2022-08-19T03:59:15;23.65;;;19.88;;
9465;SDS011;4771;48.726;9.006;2022-08-19T04:01:43;21.15;;;18.90;;
9465;SDS011;4771;48.726;9.006;2022-08-19T04:04:10;21.90;;;19.63;;
9465;SDS011;4771;48.726;9.006;2022-08-19T04:06:38;22.52;;;20.10;;
9465;SDS011;4771;48.726;9.006;2022-08-19T04:09:06;22.60;;;20.13;;
9465;SDS011;4771;48.726;9.006;2022-08-19T04:11:35;22.90;;;19.25;;
9465;SDS011;4771;48.726;9.006;2022-08-19T04:14:08;21.38;;;19.08;;
9465;SDS011;4771;48.726;9.006;2022-08-19T04:16:37;23.15;;;19.52;;
9465;SDS011;4771;48.726;9.006;2022-08-19T04:19:04;23.40;;;20.67;;
9465;SDS011;4771;48.726;9.006;2022-08-19T04:21:32;22.23;;;19.83;;
9465;SDS011;4771;48.726;9.006;2022-08-19T04:23:59;22.88;;;20.45;;
9465;SDS011;4771;48.726;9.006;2022-08-19T04:26:28;23.40;;;20.92;;
9465;SDS011;4771;48.726;9.006;2022-08-19T04:28:58;22.58;;;20.20;;
9465;SDS011;4771;48.726;9.006;2022-08-19T04:31:27;22.52;;;19.30;;
9465;SDS011;4771;48.726;9.006;2022-08-19T04:33:56;23.40;;;21.00;;
9465;SDS011;4771;48.726;9.006;2022-08-19T04:36:27;23.00;;;20.25;;
9465;SDS011;4771;48.726;9.006;2022-08-19T04:38:56;22.15;;;19.85;;
9465;SDS011;4771;48.726;9.006;2022-08-19T04:41:25;22.38;;;19.95;;
9465;SDS011;4771;48.726;9.006;2022-08-19T04:44:09;24.27;;;21.48;;
9465;SDS011;4771;48.726;9.006;2022-08-19T04:46:38;23.30;;;20.88;;
9465;SDS011;4771;48.726;9.006;2022-08-19T04:49:07;24.52;;;20.50;;
9465;SDS011;4771;48.726;9.006;2022-08-19T04:51:34;22.98;;;20.58;;
9465;SDS011;4771;48.726;9.006;2022-08-19T04:54:02;25.60;;;20.70;;
9465;SDS011;4771;48.726;9.006;2022-08-19T04:56:29;24.75;;;21.65;;
9465;SDS011;4771;48.726;9.006;2022-08-19T04:58:56;23.17;;;20.30;;
9465;SDS011;4771;48.726;9.006;2022-08-19T05:01:28;23.02;;;20.58;;
9465;SDS011;4771;48.726;9.006;2022-08-19T05:03:58;25.80;;;21.98;;
9465;SDS011;4771;48.726;9.006;2022-08-19T05:06:26;21.33;;;19.08;;
9465;SDS011;4771;48.726;9.006;2022-08-19T05:08:57;23.13;;;20.70;;
9465;SDS011;4771;48.726;9.006;2022-08-19T05:11:25;23.17;;;20.67;;
9465;SDS011;4771;48.726;9.006;2022-08-19T05:13:53;22.20;;;19.88;;
9465;SDS011;4771;48.726;9.006;2022-08-19T05:16:22;22.20;;;19.80;;
9465;SDS011;4771;48.726;9.006;2022-08-19T05:18:50;23.35;;;20.77;;
9465;SDS011;4771;48.726;9.006;2022-08-19T05:21:37;25.85;;;20.40;;
9465;SDS011;4771;48.726;9.006;2022-08-19T05:24:22;24.05;;;21.27;;
9465;SDS011;4771;48.726;9.006;2022-08-19T05:26:50;23.92;;;21.23;;
9465;SDS011;4771;48.726;9.006;2022-08-19T05:29:21;24.25;;;21.52;;
9465;SDS011;4771;48.726;9.006;2022-08-19T05:31:49;22.67;;;20.35;;
9465;SDS011;4771;48.726;9.006;2022-08-19T05:34:17;27.27;;;21.90;;
9465;SDS011;4771;48.726;9.006;2022-08-19T05:36:49;24.52;;;20.88;;
9465;SDS011;4771;48.726;9.006;2022-08-19T05:39:22;24.70;;;20.00;;
9465;SDS011;4771;48.726;9.006;2022-08-19T05:41:52;24.42;;;21.15;;
9465;SDS011;4771;48.726;9.006;2022-08-19T05:44:22;22.83;;;19.70;;
9465;SDS011;4771;48.726;9.006;2022-08-19T05:46:49;25.58;;;21.33;;
9465;SDS011;4771;48.726;9.006;2022-08-19T05:49:18;21.55;;;19.38;;
9465;SDS011;4771;48.726;9.006;2022-08-19T05:51:48;26.17;;;21.52;;
9465;SDS011;4771;48.726;9.006;2022-08-19T05:54:16;22.50;;;20.08;;
9465;SDS011;4771;48.726;9.006;2022-08-19T05:56:43;22.77;;;20.17;;
9465;SDS011;4771;48.726;9.006;2022-08-19T05:59:12;23.42;;;19.98;;
9465;SDS011;4771;48.726;9.006;2022-08-19T06:01:42;22.92;;;19.83;;
9465;SDS011;4771;48.726;9.006;2022-08-19T06:04:11;22.40;;;19.70;;
9465;SDS011;4771;48.726;9.006;2022-08-19T06:06:39;23.17;;;20.67;;
9465;SDS011;4771;48.726;9.006;2022-08-19T06:09:07;23.65;;;21.13;;
9465;SDS011;4771;48.726;9.006;2022-08-19T06:11:36;25.58;;;21.38;;
9465;SDS011;4771;48.726;9.006;2022-08-19T06:14:07;24.00;;;21.50;;
9465;SDS011;4771;48.726;9.006;2022-08-19T06:16:36;21.95;;;19.42;;
9465;SDS011;4771;48.726;9.006;2022-08-19T06:19:05;23.38;;;20.67;;
9465;SDS011;4771;48.726;9.006;2022-08-19T06:21:35;24.30;;;20.88;;
9465;SDS011;4771;48.726;9.006;2022-08-19T06:24:03;22.27;;;19.70;;
9465;SDS011;4771;48.726;9.006;2022-08-19T06:26:32;23.63;;;19.40;;
9465;SDS011;4771;48.726;9.006;2022-08-19T06:29:00;22.63;;;20.05;;
9465;SDS011;4771;48.726;9.006;2022-08-19T06:31:28;23.67;;;21.17;;
9465;SDS011;4771;48.726;9.006;2022-08-19T06:33:56;22.15;;;19.80;;
9465;SDS011;4771;48.726;9.006;2022-08-19T06:36:24;22.48;;;19.98;;
9465;SDS011;4771;48.726;9.006;2022-08-19T06:38:56;25.77;;;20.33;;
9465;SDS011;4771;48.726;9.006;2022-08-19T06:41:24;22.13;;;19.73;;
9465;SDS011;4771;48.726;9.006;2022-08-19T06:43:53;22.02;;;19.25;;
9465;SDS011;4771;48.726;9.006;2022-08-19T06:46:20;20.50;;;18.25;;
9465;SDS011;4771;48.726;9.006;2022-08-19T06:48:48;22.15;;;19.42;;
9465;SDS011;4771;48.726;9.006;2022-08-19T06:51:15;21.00;;;18.83;;
9465;SDS011;4771;48.726;9.006;2022-08-19T06:53:44;21.10;;;18.63;;
9465;SDS011;4771;48.726;9.006;2022-08-19T06:56:12;22.38;;;20.13;;
9465;SDS011;4771;48.726;9.006;2022-08-19T06:58:40;22.27;;;19.13;;
9465;SDS011;4771;48.726;9.006;2022-08-19T07:01:08;20.95;;;18.42;;
9465;SDS011;4771;48.726;9.006;2022-08-19T07:03:36;21.55;;;18.02;;
9465;SDS011;4771;48.726;9.006;2022-08-19T07:06:04;20.83;;;18.67;;
9465;SDS011;4771;48.726;9.006;2022-08-19T07:08:32;20.23;;;18.13;;
9465;SDS011;4771;48.726;9.006;2022-08-19T07:11:01;20.73;;;18.73;;
9465;SDS011;4771;48.726;9.006;2022-08-19T07:13:28;19.50;;;17.48;;
9465;SDS011;4771;48.726;9.006;2022-08-19T07:16:02;20.48;;;17.63;;
9465;SDS011;4771;48.726;9.006;2022-08-19T07:18:31;19.05;;;16.33;;
9465;SDS011;4771;48.726;9.006;2022-08-19T07:21:02;19.30;;;17.02;;
9465;SDS011;4771;48.726;9.006;2022-08-19T07:23:30;18.75;;;16.70;;
9465;SDS011;4771;48.726;9.006;2022-08-19T07:25:58;20.45;;;17.10;;
9465;SDS011;4771;48.726;9.006;2022-08-19T07:28:31;18.42;;;16.55;;
9465;SDS011;4771;48.726;9.006;2022-08-19T07:30:58;19.42;;;16.65;;
9465;SDS011;4771;48.726;9.006;2022-08-19T07:33:26;18.60;;;16.70;;
9465;SDS011;4771;48.726;9.006;2022-08-19T07:35:56;20.50;;;15.98;;
9465;SDS011;4771;48.726;9.006;2022-08-19T07:38:23;19.02;;;16.27;;
9465;SDS011;4771;48.726;9.006;2022-08-19T07:40:50;22.38;;;16.23;;
9465;SDS011;4771;48.726;9.006;2022-08-19T07:43:17;18.27;;;16.42;;
9465;SDS011;4771;48.726;9.006;2022-08-19T07:45:50;18.77;;;16.33;;
9465;SDS011;4771;48.726;9.006;2022-08-19T07:48:17;16.77;;;14.95;;
9465;SDS011;4771;48.726;9.006;2022-08-19T07:50:45;17.58;;;15.52;;
9465;SDS011;4771;48.726;9.006;2022-08-19T07:53:14;17.45;;;15.75;;
9465;SDS011;4771;48.726;9.006;2022-08-19T07:55:41;17.55;;;14.98;;
9465;SDS011;4771;48.726;9.006;2022-08-19T07:58:09;20.83;;;16.80;;
9465;SDS011;4771;48.726;9.006;2022-08-19T08:00:37;16.40;;;14.65;;
9465;SDS011;4771;48.726;9.006;2022-08-19T08:03:04;20.58;;;15.30;;
9465;SDS011;4771;48.726;9.006;2022-08-19T08:05:31;19.25;;;15.57;;
9465;SDS011;4771;48.726;9.006;2022-08-19T08:08:16;18.25;;;14.23;;
9465;SDS011;4771;48.726;9.006;2022-08-19T08:11:03;16.65;;;14.57;;
9465;SDS011;4771;48.726;9.006;2022-08-19T08:13:31;16.95;;;13.98;;
9465;SDS011;4771;48.726;9.006;2022-08-19T08:16:00;18.35;;;15.07;;
9465;SDS011;4771;48.726;9.006;2022-08-19T08:18:27;18.33;;;15.88;;
9465;SDS011;4771;48.726;9.006;2022-08-19T08:20:56;16.67;;;14.95;;
9465;SDS011;4771;48.726;9.006;2022-08-19T08:23:25;18.85;;;15.73;;
9465;SDS011;4771;48.726;9.006;2022-08-19T08:25:54;16.23;;;14.63;;
9465;SDS011;4771;48.726;9.006;2022-08-19T08:28:23;17.50;;;14.63;;
9465;SDS011;4771;48.726;9.006;2022-08-19T08:30:51;16.95;;;15.18;;
9465;SDS011;4771;48.726;9.006;2022-08-19T08:33:18;16.23;;;14.52;;
9465;SDS011;4771;48.726;9.006;2022-08-19T08:35:47;17.75;;;15.48;;
9465;SDS011;4771;48.726;9.006;2022-08-19T08:38:14;17.05;;;15.25;;
9465;SDS011;4771;48.726;9.006;2022-08-19T08:40:45;16.50;;;14.77;;
9465;SDS011;4771;48.726;9.006;2022-08-19T08:43:19;18.35;;;15.30;;
9465;SDS011;4771;48.726;9.006;2022-08-19T08:45:52;16.90;;;15.10;;
9465;SDS011;4771;48.726;9.006;2022-08-19T08:48:24;19.83;;;16.08;;
9465;SDS011;4771;48.726;9.006;2022-08-19T08:50:58;22.15;;;17.38;;
9465;SDS011;4771;48.726;9.006;2022-08-19T08:53:30;18.70;;;16.67;;
9465;SDS011;4771;48.726;9.006;2022-08-19T08:56:00;17.23;;;15.30;;
9465;SDS011;4771;48.726;9.006;2022-08-19T08:58:33;20.08;;;14.80;;
9465;SDS011;4771;48.726;9.006;2022-08-19T09:01:08;16.55;;;14.65;;
9465;SDS011;4771;48.726;9.006;2022-08-19T09:03:37;17.42;;;14.65;;
9465;SDS011;4771;48.726;9.006;2022-08-19T09:06:07;17.08;;;14.80;;
9465;SDS011;4771;48.726;9.006;2022-08-19T09:08:43;15.60;;;14.05;;
9465;SDS011;4771;48.726;9.006;2022-08-19T09:11:19;18.95;;;15.93;;
9465;SDS011;4771;48.726;9.006;2022-08-19T09:13:59;19.05;;;15.27;;
9465;SDS011;4771;48.726;9.006;2022-08-19T09:16:34;16.85;;;14.10;;
9465;SDS011;4771;48.726;9.006;2022-08-19T09:19:02;14.98;;;13.10;;
9465;SDS011;4771;48.726;9.006;2022-08-19T09:21:31;15.55;;;13.95;;
9465;SDS011;4771;48.726;9.006;2022-08-19T09:23:59;15.10;;;13.57;;
9465;SDS011;4771;48.726;9.006;2022-08-19T09:26:28;15.68;;;14.00;;
9465;SDS011;4771;48.726;9.006;2022-08-19T09:28:56;16.20;;;14.50;;
9465;SDS011;4771;48.726;9.006;2022-08-19T09:31:25;16.05;;;14.02;;
9465;SDS011;4771;48.726;9.006;2022-08-19T09:33:54;15.55;;;13.88;;
9465;SDS011;4771;48.726;9.006;2022-08-19T09:36:22;15.95;;;14.15;;
9465;SDS011;4771;48.726;9.006;2022-08-19T09:38:52;15.88;;;13.75;;
9465;SDS011;4771;48.726;9.006;2022-08-19T09:41:20;14.65;;;13.15;;
9465;SDS011;4771;48.726;9.006;2022-08-19T09:43:51;15.63;;;13.35;;
9465;SDS011;4771;48.726;9.006;2022-08-19T09:46:21;14.52;;;13.02;;
9465;SDS011;4771;48.726;9.006;2022-08-19T09:48:50;18.73;;;14.20;;
9465;SDS011;4771;48.726;9.006;2022-08-19T09:51:18;15.32;;;13.38;;
9465;SDS011;4771;48.726;9.006;2022-08-19T09:53:46;14.55;;;12.50;;
9465;SDS011;4771;48.726;9.006;2022-08-19T09:56:15;15.68;;;12.90;;
9465;SDS011;4771;48.726;9.006;2022-08-19T09:58:43;13.30;;;12.10;;
9465;SDS011;4771;48.726;9.006;2022-08-19T10:01:16;15.18;;;11.82;;
9465;SDS011;4771;48.726;9.006;2022-08-19T10:03:47;14.63;;;13.13;;
9465;SDS011;4771;48.726;9.006;2022-08-19T10:06:16;13.27;;;11.85;;
9465;SDS011;4771;48.726;9.006;2022-08-19T10:08:43;15.25;;;12.48;;
9465;SDS011;4771;48.726;9.006;2022-08-19T10:11:12;15.13;;;13.02;;
9465;SDS011;4771;48.726;9.006;2022-08-19T10:13:41;12.77;;;11.48;;
9465;SDS011;4771;48.726;9.006;2022-08-19T10:16:10;13.48;;;11.18;;
9465;SDS011;4771;48.726;9.006;2022-08-19T10:18:39;13.93;;;11.90;;
9465;SDS011;4771;48.726;9.006;2022-08-19T10:21:08;13.98;;;11.38;;
9465;SDS011;4771;48.726;9.006;2022-08-19T10:23:38;13.70;;;11.20;;
9465;SDS011;4771;48.726;9.006;2022-08-19T10:26:08;11.07;;;9.90;;
9465;SDS011;4771;48.726;9.006;2022-08-19T10:28:35;16.08;;;11.05;;
9465;SDS011;4771;48.726;9.006;2022-08-19T10:31:03;13.18;;;10.35;;
9465;SDS011;4771;48.726;9.006;2022-08-19T10:33:31;10.93;;;9.18;;
9465;SDS011;4771;48.726;9.006;2022-08-19T10:36:00;12.20;;;9.55;;
9465;SDS011;4771;48.726;9.006;2022-08-19T10:38:28;10.15;;;9.10;;
9465;SDS011;4771;48.726;9.006;2022-08-19T10:40:56;11.45;;;9.77;;
9465;SDS011;4771;48.726;9.006;2022-08-19T10:43:23;13.70;;;9.32;;
9465;SDS011;4771;48.726;9.006;2022-08-19T10:45:54;12.85;;;9.10;;
9465;SDS011;4771;48.726;9.006;2022-08-19T10:48:24;9.95;;;8.82;;
9465;SDS011;4771;48.726;9.006;2022-08-19T10:50:51;10.10;;;8.75;;
9465;SDS011;4771;48.726;9.006;2022-08-19T10:53:36;10.52;;;7.75;;
9465;SDS011;4771;48.726;9.006;2022-08-19T10:56:03;9.95;;;7.88;;
9465;SDS011;4771;48.726;9.006;2022-08-19T10:58:48;9.55;;;7.97;;
9465;SDS011;4771;48.726;9.006;2022-08-19T11:01:15;11.57;;;8.23;;
9465;SDS011;4771;48.726;9.006;2022-08-19T11:03:42;9.52;;;8.48;;
9465;SDS011;4771;48.726;9.006;2022-08-19T11:06:10;11.98;;;8.40;;
9465;SDS011;4771;48.726;9.006;2022-08-19T11:08:39;13.02;;;9.82;;
9465;SDS011;4771;48.726;9.006;2022-08-19T11:11:06;9.75;;;8.57;;
9465;SDS011;4771;48.726;9.006;2022-08-19T11:13:34;9.85;;;8.88;;
9465;SDS011;4771;48.726;9.006;2022-08-19T11:16:05;11.02;;;8.75;;
9465;SDS011;4771;48.726;9.006;2022-08-19T11:18:34;10.15;;;8.43;;
9465;SDS011;4771;48.726;9.006;2022-08-19T11:21:07;14.68;;;8.65;;
9465;SDS011;4771;48.726;9.006;2022-08-19T11:23:35;10.23;;;9.00;;
9465;SDS011;4771;48.726;9.006;2022-08-19T11:26:03;9.75;;;8.85;;
9465;SDS011;4771;48.726;9.006;2022-08-19T11:28:35;9.43;;;8.15;;
9465;SDS011;4771;48.726;9.006;2022-08-19T11:31:03;9.32;;;8.30;;
9465;SDS011;4771;48.726;9.006;2022-08-19T11:33:31;11.27;;;8.52;;
9465;SDS011;4771;48.726;9.006;2022-08-19T11:35:58;9.45;;;8.55;;
9465;SDS011;4771;48.726;9.006;2022-08-19T11:38:26;9.45;;;8.38;;
9465;SDS011;4771;48.726;9.006;2022-08-19T11:40:55;10.10;;;7.82;;
9465;SDS011;4771;48.726;9.006;2022-08-19T11:43:23;8.32;;;7.22;;
9465;SDS011;4771;48.726;9.006;2022-08-19T11:45:51;7.85;;;7.05;;
9465;SDS011;4771;48.726;9.006;2022-08-19T11:48:18;8.98;;;6.97;;
9465;SDS011;4771;48.726;9.006;2022-08-19T11:50:47;11.32;;;7.07;;
9465;SDS011;4771;48.726;9.006;2022-08-19T11:53:14;8.07;;;6.25;;
9465;SDS011;4771;48.726;9.006;2022-08-19T11:55:42;6.95;;;6.32;;
9465;SDS011;4771;48.726;9.006;2022-08-19T11:58:09;8.00;;;6.70;;
9465;SDS011;4771;48.726;9.006;2022-08-19T12:00:39;7.97;;;6.70;;
9465;SDS011;4771;48.726;9.006;2022-08-19T12:03:06;9.70;;;6.25;;
9465;SDS011;4771;48.726;9.006;2022-08-19T12:05:35;7.38;;;6.57;;
9465;SDS011;4771;48.726;9.006;2022-08-19T12:08:03;8.63;;;6.22;;
9465;SDS011;4771;48.726;9.006;2022-08-19T12:10:30;6.70;;;5.97;;
9465;SDS011;4771;48.726;9.006;2022-08-19T12:12:57;6.75;;;6.10;;
9465;SDS011;4771;48.726;9.006;2022-08-19T12:15:25;7.22;;;6.32;;
9465;SDS011;4771;48.726;9.006;2022-08-19T12:17:56;5.70;;;5.18;;
9465;SDS011;4771;48.726;9.006;2022-08-19T12:20:23;6.40;;;5.75;;
9465;SDS011;4771;48.726;9.006;2022-08-19T12:22:51;6.03;;;5.45;;
9465;SDS011;4771;48.726;9.006;2022-08-19T12:25:18;5.70;;;4.85;;
9465;SDS011;4771;48.726;9.006;2022-08-19T12:27:45;5.70;;;5.05;;
9465;SDS011;4771;48.726;9.006;2022-08-19T12:30:14;5.35;;;4.85;;
9465;SDS011;4771;48.726;9.006;2022-08-19T12:32:41;6.45;;;4.72;;
9465;SDS011;4771;48.726;9.006;2022-08-19T12:35:09;8.40;;;5.13;;
9465;SDS011;4771;48.726;9.006;2022-08-19T12:37:37;10.75;;;9.38;;
9465;SDS011;4771;48.726;9.006;2022-08-19T12:40:04;8.55;;;6.07;;
9465;SDS011;4771;48.726;9.006;2022-08-19T12:42:32;6.05;;;5.32;;
9465;SDS011;4771;48.726;9.006;2022-08-19T12:44:59;6.22;;;5.15;;
9465;SDS011;4771;48.726;9.006;2022-08-19T12:47:26;7.90;;;5.53;;
9465;SDS011;4771;48.726;9.006;2022-08-19T12:49:54;12.43;;;5.03;;
9465;SDS011;4771;48.726;9.006;2022-08-19T12:52:24;6.32;;;5.05;;
9465;SDS011;4771;48.726;9.006;2022-08-19T12:54:52;5.82;;;4.75;;
9465;SDS011;4771;48.726;9.006;2022-08-19T12:57:20;5.30;;;4.80;;
9465;SDS011;4771;48.726;9.006;2022-08-19T12:59:51;5.13;;;4.72;;
9465;SDS011;4771;48.726;9.006;2022-08-19T13:02:19;5.68;;;4.70;;
9465;SDS011;4771;48.726;9.006;2022-08-19T13:04:47;5.22;;;4.47;;
9465;SDS011;4771;48.726;9.006;2022-08-19T13:07:14;5.32;;;4.82;;
9465;SDS011;4771;48.726;9.006;2022-08-19T13:09:42;5.53;;;4.90;;
9465;SDS011;4771;48.726;9.006;2022-08-19T13:12:09;7.38;;;5.07;;
9465;SDS011;4771;48.726;9.006;2022-08-19T13:14:38;12.85;;;11.57;;
9465;SDS011;4771;48.726;9.006;2022-08-19T13:17:06;6.28;;;5.53;;
9465;SDS011;4771;48.726;9.006;2022-08-19T13:19:35;5.60;;;5.03;;
9465;SDS011;4771;48.726;9.006;2022-08-19T13:22:03;7.70;;;5.13;;
9465;SDS011;4771;48.726;9.006;2022-08-19T13:24:30;5.53;;;4.97;;
9465;SDS011;4771;48.726;9.006;2022-08-19T13:26:59;10.02;;;5.20;;
9465;SDS011;4771;48.726;9.006;2022-08-19T13:29:26;7.03;;;6.43;;
9465;SDS011;4771;48.726;9.006;2022-08-19T13:32:11;5.85;;;5.00;;
9465;SDS011;4771;48.726;9.006;2022-08-19T13:34:56;5.88;;;5.28;;
9465;SDS011;4771;48.726;9.006;2022-08-19T13:37:23;5.88;;;5.38;;
9465;SDS011;4771;48.726;9.006;2022-08-19T13:40:04;5.43;;;4.88;;
9465;SDS011;4771;48.726;9.006;2022-08-19T13:42:33;4.75;;;4.30;;
9465;SDS011;4771;48.726;9.006;2022-08-19T13:45:00;5.35;;;4.90;;
9465;SDS011;4771;48.726;9.006;2022-08-19T13:47:27;7.07;;;6.38;;
9465;SDS011;4771;48.726;9.006;2022-08-19T13:49:54;6.40;;;5.80;;
9465;SDS011;4771;48.726;9.006;2022-08-19T13:52:21;6.75;;;6.03;;
9465;SDS011;4771;48.726;9.006;2022-08-19T13:54:48;8.60;;;6.03;;
9465;SDS011;4771;48.726;9.006;2022-08-19T13:57:15;10.07;;;5.57;;
9465;SDS011;4771;48.726;9.006;2022-08-19T13:59:43;6.40;;;5.80;;
9465;SDS011;4771;48.726;9.006;2022-08-19T14:02:10;7.32;;;6.30;;
9465;SDS011;4771;48.726;9.006;2022-08-19T14:04:37;6.97;;;6.05;;
9465;SDS011;4771;48.726;9.006;2022-08-19T14:07:04;6.82;;;5.88;;
9465;SDS011;4771;48.726;9.006;2022-08-19T14:09:31;10.02;;;5.55;;
9465;SDS011;4771;48.726;9.006;2022-08-19T14:11:58;8.02;;;6.22;;
9465;SDS011;4771;48.726;9.006;2022-08-19T14:14:24;6.00;;;5.43;;
9465;SDS011;4771;48.726;9.006;2022-08-19T14:16:53;6.38;;;5.78;;
9465;SDS011;4771;48.726;9.006;2022-08-19T14:19:20;10.90;;;6.35;;
9465;SDS011;4771;48.726;9.006;2022-08-19T14:21:47;10.23;;;6.00;;
9465;SDS011;4771;48.726;9.006;2022-08-19T14:24:14;7.63;;;6.35;;
9465;SDS011;4771;48.726;9.006;2022-08-19T14:26:40;7.40;;;6.05;;
9465;SDS011;4771;48.726;9.006;2022-08-19T14:29:07;7.55;;;5.97;;
9465;SDS011;4771;48.726;9.006;2022-08-19T14:31:34;7.93;;;6.00;;
9465;SDS011;4771;48.726;9.006;2022-08-19T14:34:02;6.15;;;5.55;;
9465;SDS011;4771;48.726;9.006;2022-08-19T14:36:30;8.35;;;7.10;;
9465;SDS011;4771;48.726;9.006;2022-08-19T14:38:59;29.08;;;26.02;;
9465;SDS011;4771;48.726;9.006;2022-08-19T14:41:26;13.20;;;9.85;;
9465;SDS011;4771;48.726;9.006;2022-08-19T14:43:55;12.38;;;9.35;;
9465;SDS011;4771;48.726;9.006;2022-08-19T14:46:24;15.55;;;11.00;;
9465;SDS011;4771;48.726;9.006;2022-08-19T14:48:53;10.00;;;6.30;;
9465;SDS011;4771;48.726;9.006;2022-08-19T14:51:22;12.73;;;11.48;;
9465;SDS011;4771;48.726;9.006;2022-08-19T14:53:51;6.50;;;5.90;;
9465;SDS011;4771;48.726;9.006;2022-08-19T14:56:19;6.55;;;5.95;;
9465;SDS011;4771;48.726;9.006;2022-08-19T14:58:48;6.07;;;5.43;;
9465;SDS011;4771;48.726;9.006;2022-08-19T15:01:16;6.05;;;5.55;;
9465;SDS011;4771;48.726;9.006;2022-08-19T15:03:45;6.32;;;5.72;;
9465;SDS011;4771;48.726;9.006;2022-08-19T15:06:12;11.65;;;10.43;;